Time;durP1;ratioP1;P1;durP2;ratioP2;P2;SDS_P1;SDS_P2;PMS_P1;PMS_P2;Temp;Humidity;BMP_temperature;BMP_pressure;BME280_temperature;BME280_humidity;BME280_pressure;Samples;Min_cycle;Max_cycle;Signal;HPM_P1;HPM_P2
2022/01/31 00:00:36;;;;;;;;;7.00;5.33;;;;;10.38;51.05;101977.91;4978379;28;45433;-86
2022/01/31 00:03:02;;;;;;;;;8.67;6.00;;;;;10.19;50.50;101942.78;4978566;28;45312;-86
2022/01/31 00:05:28;;;;;;;;;5.00;4.33;;;;;10.60;50.89;102015.59;4977705;28;45359;-86
2022/01/31 00:07:53;;;;;;;;;5.33;5.33;;;;;9.83;50.84;101883.22;4978173;28;46036;-86
2022/01/31 00:10:27;;;;;;;;;7.67;7.67;;;;;10.41;51.13;101959.19;4977639;28;45330;-89
2022/01/31 00:13:09;;;;;;;;;8.67;6.33;;;;;10.69;51.42;102003.84;4978442;28;45747;-85
2022/01/31 00:15:41;;;;;;;;;6.67;6.67;;;;;10.68;51.64;101994.97;4960318;28;47353;-86
2022/01/31 00:18:07;;;;;;;;;5.33;5.33;;;;;10.24;51.24;101921.38;4977766;28;45409;-86
2022/01/31 00:20:32;;;;;;;;;6.00;6.00;;;;;10.62;51.34;101987.13;4960353;28;45407;-86
2022/01/31 00:22:58;;;;;;;;;14.00;8.67;;;;;10.02;51.51;101878.34;4978307;28;45391;-86
2022/01/31 00:25:24;;;;;;;;;6.67;5.00;;;;;10.54;51.71;101987.31;4959825;28;48080;-87
2022/01/31 00:27:49;;;;;;;;;7.33;5.67;;;;;10.23;51.89;101956.91;4977717;28;45366;-86
2022/01/31 00:30:16;;;;;;;;;10.67;9.67;;;;;10.18;52.17;101927.69;4977858;28;45417;-87
2022/01/31 00:32:41;;;;;;;;;7.33;6.00;;;;;10.07;51.95;101922.63;4978145;28;45426;-86
2022/01/31 00:35:08;;;;;;;;;4.67;4.00;;;;;9.56;52.46;101810.19;4959636;28;46345;-86
2022/01/31 00:37:33;;;;;;;;;6.33;4.00;;;;;10.42;52.19;101971.59;4960067;28;45755;-85
2022/01/31 00:39:59;;;;;;;;;7.00;5.00;;;;;9.90;52.62;101895.47;4959833;28;45507;-86
2022/01/31 00:42:26;;;;;;;;;8.00;6.67;;;;;9.46;52.74;101826.34;4977900;28;45374;-86
2022/01/31 00:44:55;;;;;;;;;6.67;6.00;;;;;10.42;52.52;101986.69;4977479;28;45389;-86
2022/01/31 00:47:24;;;;;;;;;7.33;5.33;;;;;10.44;52.60;101991.13;4979313;28;45457;-85
2022/01/31 00:49:54;;;;;;;;;6.00;6.00;;;;;9.29;52.30;101780.59;4963529;28;45347;-86
2022/01/31 00:52:20;;;;;;;;;7.00;6.33;;;;;10.01;52.50;101889.94;4963719;28;45212;-86
2022/01/31 00:54:46;;;;;;;;;8.00;8.00;;;;;10.50;52.37;101974.94;4980237;28;45438;-85
2022/01/31 00:57:12;;;;;;;;;5.67;5.67;;;;;9.91;52.24;101871.50;4963554;28;45387;-86
2022/01/31 00:59:37;;;;;;;;;7.00;6.67;;;;;9.86;52.50;101849.44;4980632;28;45271;-86
2022/01/31 01:02:03;;;;;;;;;4.67;4.67;;;;;10.07;52.21;101874.69;4981392;28;45491;-85
2022/01/31 01:04:28;;;;;;;;;6.67;4.00;;;;;10.21;51.89;101892.09;4980467;28;45473;-86
2022/01/31 01:06:54;;;;;;;;;5.00;5.00;;;;;10.10;51.92;101877.25;4963218;28;45443;-86
2022/01/31 01:09:19;;;;;;;;;6.00;4.67;;;;;10.21;51.67;101874.38;4963008;28;45406;-86
2022/01/31 01:11:44;;;;;;;;;6.67;5.67;;;;;9.69;51.70;101799.25;4980858;28;45447;-86
2022/01/31 01:14:10;;;;;;;;;3.00;3.00;;;;;9.69;52.55;101780.59;4963147;28;48436;-86
2022/01/31 01:16:35;;;;;;;;;5.67;5.00;;;;;9.91;52.00;101804.91;4980565;28;45475;-86
2022/01/31 01:19:02;;;;;;;;;5.00;4.00;;;;;10.54;51.88;101915.34;4980705;28;45330;-86
2022/01/31 01:21:28;;;;;;;;;7.00;4.67;;;;;9.86;51.66;101789.97;4981021;28;45656;-86
2022/01/31 01:23:53;;;;;;;;;4.33;3.33;;;;;10.07;52.34;101828.53;4980155;28;45422;-86
2022/01/31 01:26:19;;;;;;;;;3.00;3.00;;;;;10.08;52.30;101800.97;4980869;28;45383;-86
2022/01/31 01:28:45;;;;;;;;;5.67;3.00;;;;;9.78;52.02;101720.91;4980368;28;45374;-86
2022/01/31 01:31:11;;;;;;;;;6.00;4.00;;;;;10.57;52.21;101853.06;4981143;28;45401;-88
2022/01/31 01:33:39;;;;;;;;;6.50;4.50;;;;;10.50;52.46;101838.13;4962100;28;47080;-87
2022/01/31 01:36:06;;;;;;;;;6.00;3.33;;;;;10.48;52.74;101827.50;4980244;28;45477;-86
2022/01/31 01:38:31;;;;;;;;;5.00;3.00;;;;;10.49;52.79;101818.63;4979974;28;45386;-86
2022/01/31 01:40:59;;;;;;;;;4.33;4.00;;;;;10.04;52.93;101754.00;4980708;28;45219;-86
2022/01/31 01:43:26;;;;;;;;;4.00;3.00;;;;;10.48;52.94;101830.19;4962483;28;48333;-86
2022/01/31 01:45:54;;;;;;;;;5.00;3.00;;;;;10.27;52.93;101788.94;4980300;28;45528;-86
2022/01/31 01:48:19;;;;;;;;;4.00;4.00;;;;;9.59;53.41;101672.59;4980326;28;45309;-86
2022/01/31 01:50:45;;;;;;;;;3.00;2.33;;;;;10.09;53.56;101752.09;4962704;28;45398;-86
2022/01/31 01:53:14;;;;;;;;;3.00;3.00;;;;;10.47;53.47;101811.56;4979972;28;45361;-87
2022/01/31 01:55:42;;;;;;;;;3.00;2.00;;;;;9.86;54.13;101713.63;4980190;28;45217;-86
2022/01/31 01:58:14;;;;;;;;;4.33;3.00;;;;;10.02;54.00;101755.81;4962010;28;45466;-86
2022/01/31 02:03:39;;;;;;;;;7.67;4.00;;;;;10.15;54.01;101766.13;4938431;28;46861;-86
2022/01/31 02:06:06;;;;;;;;;2.67;0.33;;;;;10.35;54.14;101794.97;4922777;28;45419;-86
2022/01/31 02:08:42;;;;;;;;;5.00;4.00;;;;;9.72;54.13;101683.81;4938690;28;45552;-86
2022/01/31 02:11:10;;;;;;;;;6.00;4.67;;;;;9.72;54.55;101690.00;4923272;28;45540;-87
2022/01/31 02:13:37;;;;;;;;;4.33;3.00;;;;;10.39;54.35;101806.41;4922380;28;47418;-87
2022/01/31 02:16:05;;;;;;;;;7.67;4.33;;;;;10.36;54.79;101782.53;4938783;28;45601;-86
2022/01/31 02:18:31;;;;;;;;;5.67;3.00;;;;;10.32;55.24;101767.53;4922789;28;45442;-87
2022/01/31 02:20:57;;;;;;;;;6.00;3.67;;;;;10.15;55.52;101755.47;4938350;28;45476;-87
2022/01/31 02:23:23;;;;;;;;;2.33;2.33;;;;;10.07;55.98;101748.63;4922748;28;47691;-86
2022/01/31 02:25:53;;;;;;;;;4.67;4.67;;;;;9.66;55.94;101691.94;4938245;28;45357;-87
2022/01/31 02:28:21;;;;;;;;;5.00;3.00;;;;;10.20;56.46;101773.16;4922829;28;45485;-87
2022/01/31 02:30:46;;;;;;;;;3.00;2.00;;;;;9.68;56.35;101683.00;4922450;28;45593;-87
2022/01/31 02:33:11;;;;;;;;;2.00;2.00;;;;;9.63;57.19;101663.63;4940554;28;46510;-87
2022/01/31 02:35:37;;;;;;;;;3.33;3.33;;;;;9.64;56.92;101648.50;4941215;28;45355;-86
2022/01/31 02:38:02;;;;;;;;;3.67;2.00;;;;;9.46;57.24;101629.44;4958286;28;45909;-86
2022/01/31 02:40:28;;;;;;;;;3.00;3.00;;;;;9.97;57.56;101731.97;4999621;28;45528;-86
2022/01/31 02:42:54;;;;;;;;;6.33;3.00;;;;;9.30;57.75;101612.97;4998717;28;45435;-87
2022/01/31 02:45:19;;;;;;;;;4.00;3.00;;;;;9.82;57.88;101701.28;4981489;28;45228;-87
2022/01/31 02:47:52;;;;;;;;;2.67;2.33;;;;;9.22;58.53;101591.00;4998767;28;45311;-86
2022/01/31 02:50:18;;;;;;;;;3.00;3.00;;;;;10.20;58.22;101735.84;4999372;28;45308;-86
2022/01/31 02:52:48;;;;;;;;;3.00;2.00;;;;;10.14;58.13;101720.91;4998605;28;45444;-86
2022/01/31 02:55:14;;;;;;;;;3.00;3.00;;;;;10.15;58.32;101714.66;4981166;28;45365;-86
2022/01/31 02:57:39;;;;;;;;;7.00;4.00;;;;;9.73;58.34;101654.47;4998809;28;45410;-89
2022/01/31 03:00:06;;;;;;;;;2.00;2.00;;;;;9.52;58.67;101615.09;4981348;28;45544;-86
2022/01/31 03:02:32;;;;;;;;;2.00;2.00;;;;;9.94;58.96;101666.34;4998978;28;46386;-86
2022/01/31 03:04:57;;;;;;;;;3.00;3.00;;;;;10.12;59.49;101696.09;4980446;28;45357;-87
2022/01/31 03:07:22;;;;;;;;;2.33;1.67;;;;;9.66;59.44;101606.75;4979323;28;45508;-86
2022/01/31 03:09:48;;;;;;;;;2.00;2.00;;;;;10.05;60.37;101674.06;4978273;28;45369;-88
2022/01/31 03:12:14;;;;;;;;;5.00;3.00;;;;;10.00;60.86;101656.47;4975512;28;48445;-89
2022/01/31 03:14:42;;;;;;;;;0.33;0.33;;;;;10.07;60.82;101661.59;4978848;28;45391;-87
2022/01/31 03:17:08;;;;;;;;;4.33;3.00;;;;;10.08;61.34;101662.47;4961551;28;45602;-87
2022/01/31 03:19:38;;;;;;;;;1.00;1.00;;;;;9.15;61.22;101514.06;4961518;28;45394;-87
2022/01/31 03:22:04;;;;;;;;;2.00;2.00;;;;;10.01;61.37;101669.75;4978265;28;45524;-87
2022/01/31 03:24:29;;;;;;;;;3.00;2.00;;;;;9.71;61.16;101629.69;4961313;28;45980;-88
2022/01/31 03:26:55;;;;;;;;;3.00;1.33;;;;;9.48;61.63;101581.50;4978360;28;45326;-88
2022/01/31 03:29:20;;;;;;;;;4.00;3.00;;;;;8.93;61.97;101503.09;4979236;28;45240;-87
2022/01/31 03:31:45;;;;;;;;;2.67;2.67;;;;;9.58;62.39;101598.13;4978479;28;45550;-86
2022/01/31 03:34:10;;;;;;;;;1.33;1.00;;;;;9.67;62.33;101612.06;4970661;28;45896;-87
2022/01/31 03:36:36;;;;;;;;;3.00;1.00;;;;;9.48;63.16;101582.38;4998676;28;45611;-88
2022/01/31 03:39:02;;;;;;;;;3.33;2.00;;;;;9.38;63.34;101540.06;4980766;28;45520;-87
2022/01/31 03:41:27;;;;;;;;;2.67;2.67;;;;;9.54;63.77;101568.03;4998181;28;46077;-87
2022/01/31 03:43:53;;;;;;;;;2.33;1.33;;;;;10.09;64.59;101664.19;4997717;28;45375;-86
2022/01/31 03:46:18;;;;;;;;;3.00;3.00;;;;;10.01;64.06;101651.09;4980734;28;45447;-87
2022/01/31 03:48:45;;;;;;;;;1.33;1.33;;;;;9.17;65.28;101505.13;4976877;28;45574;-88
2022/01/31 03:51:11;;;;;;;;;4.00;2.00;;;;;9.28;65.10;101535.00;4977130;28;47318;-87
2022/01/31 03:53:36;;;;;;;;;3.00;2.00;;;;;9.66;65.69;101599.66;4978376;28;45455;-88
2022/01/31 03:56:08;;;;;;;;;1.67;1.67;;;;;9.16;65.85;101495.41;4978166;28;45461;-87
2022/01/31 03:58:33;;;;;;;;;3.00;2.33;;;;;9.12;66.64;101485.75;4978976;28;45352;-88
2022/01/31 04:00:59;;;;;;;;;3.00;3.00;;;;;9.38;66.99;101535.63;4967723;28;47039;-89
2022/01/31 04:03:24;;;;;;;;;1.67;1.67;;;;;9.83;67.34;101638.25;4958537;28;45425;-89
2022/01/31 04:05:50;;;;;;;;;3.33;2.00;;;;;9.57;68.03;101597.22;4957212;28;46146;-89
2022/01/31 04:08:15;;;;;;;;;3.00;1.00;;;;;9.40;68.18;101539.13;4959197;28;45584;-88
2022/01/31 04:10:41;;;;;;;;;1.00;1.00;;;;;10.10;68.14;101649.97;4958739;28;45374;-90
2022/01/31 04:13:06;;;;;;;;;1.67;1.67;;;;;9.59;68.78;101562.59;4957279;28;45463;-89
2022/01/31 04:15:36;;;;;;;;;3.00;2.67;;;;;9.26;68.61;101498.72;4957389;28;45337;-89
2022/01/31 04:18:03;;;;;;;;;4.00;2.00;;;;;9.88;68.72;101621.28;4957043;28;45569;-89
2022/01/31 04:20:28;;;;;;;;;2.00;2.00;;;;;10.22;68.80;101659.44;4957136;28;48343;-89
2022/01/31 04:23:02;;;;;;;;;0.67;0.67;;;;;10.11;68.77;101649.94;4956397;28;45631;-89
2022/01/31 04:25:42;;;;;;;;;0.67;0.67;;;;;10.18;68.35;101649.75;4957409;28;45347;-89
2022/01/31 04:28:16;;;;;;;;;1.00;1.00;;;;;9.40;68.59;101516.97;4958680;28;45339;-89
2022/01/31 04:30:50;;;;;;;;;1.00;1.00;;;;;9.16;68.84;101475.94;4956494;28;48510;-87
2022/01/31 04:33:15;;;;;;;;;1.00;1.00;;;;;9.12;68.91;101456.50;4956720;28;45481;-89
2022/01/31 04:35:40;;;;;;;;;1.67;1.33;;;;;9.49;68.82;101543.34;4958629;28;45510;-89
2022/01/31 04:38:06;;;;;;;;;1.00;1.00;;;;;9.99;69.27;101610.31;4957041;28;45335;-88
2022/01/31 04:40:31;;;;;;;;;1.00;1.00;;;;;10.01;68.88;101627.13;4958226;28;51544;-88
2022/01/31 04:42:56;;;;;;;;;2.00;1.00;;;;;9.25;68.79;101494.31;4956794;28;45352;-88
2022/01/31 04:45:22;;;;;;;;;2.00;1.00;;;;;9.77;68.85;101564.78;4957086;28;45435;-89
2022/01/31 04:47:47;;;;;;;;;0.00;0.00;;;;;9.72;69.18;101572.00;4968422;28;45282;-89
2022/01/31 04:50:13;;;;;;;;;1.00;1.00;;;;;9.63;69.58;101542.97;4959988;28;48120;-89
2022/01/31 04:52:41;;;;;;;;;1.67;1.67;;;;;9.60;68.73;101527.06;4960278;28;45653;-89
2022/01/31 04:55:07;;;;;;;;;1.33;0.00;;;;;9.03;68.76;101433.69;4960123;28;45445;-88
2022/01/31 04:57:32;;;;;;;;;0.00;0.00;;;;;10.07;68.82;101620.78;4960380;28;45470;-88
2022/01/31 04:59:58;;;;;;;;;1.00;1.00;;;;;10.06;68.62;101619.88;4959801;28;47857;-88
2022/01/31 05:02:24;;;;;;;;;1.00;1.00;;;;;9.49;68.60;101533.56;4977302;28;45373;-88
2022/01/31 05:04:50;;;;;;;;;3.00;3.00;;;;;9.46;68.17;101527.47;4960019;28;45442;-88
2022/01/31 05:07:15;;;;;;;;;1.00;1.00;;;;;10.24;67.53;101665.59;4977568;28;45485;-88
2022/01/31 05:09:41;;;;;;;;;1.00;1.00;;;;;10.40;67.16;101682.94;4955910;28;46938;-88
2022/01/31 05:12:07;;;;;;;;;2.00;2.00;;;;;9.65;66.08;101573.97;4957871;28;45307;-89
2022/01/31 05:14:33;;;;;;;;;1.67;1.00;;;;;9.88;66.09;101613.28;4970340;28;45688;-88
2022/01/31 05:16:58;;;;;;;;;1.00;1.00;;;;;9.44;65.54;101534.59;4977322;28;45237;-88
2022/01/31 05:19:24;;;;;;;;;2.67;1.00;;;;;10.47;65.64;101719.16;4955222;28;47760;-88
2022/01/31 05:21:49;;;;;;;;;4.33;2.00;;;;;10.09;64.89;101640.22;4957618;28;45260;-89
2022/01/31 05:24:15;;;;;;;;;1.00;1.00;;;;;10.39;64.61;101680.31;4957718;28;45688;-89
2022/01/31 05:26:40;;;;;;;;;2.00;1.00;;;;;9.39;64.61;101513.44;4940754;28;45678;-88
2022/01/31 05:29:05;;;;;;;;;3.00;1.33;;;;;9.83;64.19;101601.00;4957325;28;45315;-89
2022/01/31 05:31:31;;;;;;;;;4.33;2.00;;;;;9.83;63.66;101580.59;4951713;28;47356;-88
2022/01/31 05:33:56;;;;;;;;;1.00;1.00;;;;;10.05;62.70;101622.59;4961022;28;45970;-88
2022/01/31 05:36:22;;;;;;;;;0.00;0.00;;;;;9.84;61.92;101597.44;4980663;28;45414;-88
2022/01/31 05:38:47;;;;;;;;;3.67;3.00;;;;;9.84;62.19;101602.75;4980370;28;45513;-89
2022/01/31 05:41:18;;;;;;;;;2.00;2.00;;;;;9.91;61.76;101605.19;4980321;28;45352;-89
2022/01/31 05:43:44;;;;;;;;;1.67;1.00;;;;;10.51;61.66;101714.59;4962710;28;45260;-88
2022/01/31 05:46:10;;;;;;;;;1.00;1.00;;;;;10.44;61.23;101689.94;4962812;28;45416;-88
2022/01/31 05:48:35;;;;;;;;;1.33;1.33;;;;;10.31;61.43;101676.06;4959242;28;48675;-87
2022/01/31 05:51:09;;;;;;;;;3.67;1.00;;;;;9.96;61.03;101631.72;4957867;28;45551;-88
2022/01/31 05:53:35;;;;;;;;;0.67;0.67;;;;;9.37;61.12;101531.22;4958914;28;45432;-89
2022/01/31 05:56:02;;;;;;;;;1.67;1.67;;;;;9.62;61.61;101578.47;4960235;28;45685;-88
2022/01/31 05:58:27;;;;;;;;;3.33;2.00;;;;;9.71;61.36;101576.44;4963475;28;46274;-88
2022/01/31 06:00:52;;;;;;;;;1.00;1.00;;;;;10.46;62.34;101717.38;4966466;28;45457;-88
2022/01/31 06:03:18;;;;;;;;;1.33;1.33;;;;;9.56;61.28;101544.91;4960421;28;45414;-88
2022/01/31 06:05:43;;;;;;;;;2.00;2.00;;;;;9.48;60.45;101520.28;4960697;28;45493;-88
2022/01/31 06:08:08;;;;;;;;;3.67;1.00;;;;;9.54;60.43;101545.88;4958966;28;47057;-87
2022/01/31 06:10:41;;;;;;;;;2.00;1.00;;;;;10.47;60.82;101710.28;4959811;28;45470;-89
2022/01/31 06:13:06;;;;;;;;;1.00;1.00;;;;;9.92;60.53;101622.91;4960330;28;45340;-88
2022/01/31 06:15:31;;;;;;;;;2.67;2.00;;;;;9.78;60.41;101600.25;4960606;28;45620;-89
2022/01/31 06:17:57;;;;;;;;;2.00;1.00;;;;;9.54;60.12;101564.50;4960556;28;45728;-93
2022/01/31 06:20:22;;;;;;;;;4.00;1.00;;;;;10.50;59.96;101739.53;4959729;28;45526;-92
2022/01/31 06:22:50;;;;;;;;;2.67;1.00;;;;;10.49;60.13;101738.66;4959122;28;45490;-90
2022/01/31 06:25:16;;;;;;;;;2.00;2.00;;;;;9.65;59.13;101589.06;4960965;28;45373;-92
2022/01/31 06:27:42;;;;;;;;;5.33;2.67;;;;;10.23;59.35;101679.81;4958770;28;47337;-90
2022/01/31 06:30:09;;;;;;;;;2.00;2.00;;;;;9.22;59.21;101500.56;4959805;28;45468;-92
2022/01/31 06:32:34;;;;;;;;;0.00;0.00;;;;;10.08;59.27;101659.81;4959582;28;45275;-92
2022/01/31 06:34:59;;;;;;;;;3.00;2.00;;;;;10.00;59.01;101637.84;4957725;28;45524;-86
2022/01/31 06:37:28;;;;;;;;;0.00;0.00;;;;;9.48;58.65;101541.56;4956279;28;45616;-89
2022/01/31 06:39:55;;;;;;;;;2.67;1.00;;;;;10.42;58.97;101701.53;4959585;28;45652;-85
2022/01/31 06:42:20;;;;;;;;;3.67;1.00;;;;;10.50;58.22;101723.53;4951919;28;45394;-82
2022/01/31 06:44:45;;;;;;;;;3.00;1.00;;;;;10.50;58.15;101713.72;4958949;28;45385;-83
2022/01/31 06:47:11;;;;;;;;;1.00;1.00;;;;;10.25;57.70;101681.50;4963604;28;48334;-83
2022/01/31 06:49:36;;;;;;;;;2.67;1.00;;;;;10.54;58.16;101743.84;4976577;28;45699;-83
2022/01/31 06:52:03;;;;;;;;;1.33;0.33;;;;;10.24;57.41;101698.44;4978924;28;45582;-83
2022/01/31 06:54:28;;;;;;;;;3.00;1.33;;;;;10.51;56.88;101731.50;4977060;28;45544;-83
2022/01/31 06:56:56;;;;;;;;;3.00;2.00;;;;;10.18;56.86;101679.94;4977566;28;47883;-83
2022/01/31 06:59:21;;;;;;;;;1.00;1.00;;;;;10.28;57.20;101688.56;4978887;28;45595;-84
2022/01/31 07:01:46;;;;;;;;;0.00;0.00;;;;;10.01;56.81;101651.09;4978368;28;45608;-85
2022/01/31 07:04:12;;;;;;;;;3.00;3.00;;;;;10.09;56.22;101672.19;4961709;28;45487;-86
2022/01/31 07:06:37;;;;;;;;;1.00;1.00;;;;;10.53;56.98;101745.63;4961455;28;47328;-82
2022/01/31 07:09:03;;;;;;;;;1.33;1.33;;;;;9.92;57.29;101636.22;4978713;28;52445;-87
2022/01/31 07:11:33;;;;;;;;;2.00;2.00;;;;;10.22;56.89;101660.28;4961003;28;45455;-84
2022/01/31 07:14:29;;;;;;;;;2.33;2.33;;;;;10.89;57.04;101744.66;4978966;28;45458;-83
2022/01/31 07:16:53;;;;;;;;;3.00;2.00;;;;;10.18;54.58;101616.00;4978477;28;45471;-85
2022/01/31 07:19:21;;;;;;;;;2.00;1.00;;;;;10.14;54.56;101598.38;4978786;28;45363;-85
2022/01/31 07:21:49;;;;;;;;;2.67;2.00;;;;;10.83;54.57;101724.34;4978467;28;45423;-83
2022/01/31 07:24:22;;;;;;;;;1.00;1.00;;;;;10.57;54.55;101685.97;4979303;28;45519;-84
2022/01/31 07:26:48;;;;;;;;;1.00;1.00;;;;;10.85;54.44;101732.31;4977866;28;45469;-84
2022/01/31 07:29:14;;;;;;;;;1.00;1.00;;;;;10.72;54.67;101719.34;4961242;28;46073;-84
2022/01/31 07:31:41;;;;;;;;;0.33;0.33;;;;;10.78;54.06;101732.50;4965464;28;45516;-84
2022/01/31 07:34:07;;;;;;;;;0.00;0.00;;;;;10.78;54.13;101735.16;4960725;28;45551;-86
2022/01/31 07:36:32;;;;;;;;;3.00;2.00;;;;;11.02;54.15;101769.16;4967653;28;47239;-84
2022/01/31 07:38:58;;;;;;;;;4.00;2.67;;;;;10.87;54.17;101747.34;4978151;28;45404;-84
2022/01/31 07:41:23;;;;;;;;;1.00;1.00;;;;;10.66;54.57;101718.66;4978443;28;45333;-84
2022/01/31 07:43:49;;;;;;;;;3.00;2.00;;;;;10.80;54.08;101740.47;4978836;28;45310;-84
2022/01/31 07:46:14;;;;;;;;;2.00;1.00;;;;;10.44;53.96;101686.38;4978724;28;45865;-84
2022/01/31 07:48:41;;;;;;;;;1.00;1.00;;;;;11.06;54.65;101801.06;4977743;28;45259;-83
2022/01/31 07:51:08;;;;;;;;;3.00;2.00;;;;;10.82;54.27;101762.63;4978148;28;45402;-83
2022/01/31 07:53:33;;;;;;;;;2.00;2.00;;;;;11.05;53.95;101788.66;4960294;28;45577;-84
2022/01/31 07:56:00;;;;;;;;;5.00;4.00;;;;;10.91;54.18;101778.38;4976909;28;45588;-86
2022/01/31 07:58:26;;;;;;;;;2.00;2.00;;;;;10.67;53.69;101721.25;4960849;28;45455;-80
2022/01/31 08:00:51;;;;;;;;;7.33;4.00;;;;;10.92;53.77;101787.22;4977197;28;45490;-81
2022/01/31 08:03:16;;;;;;;;;4.00;2.00;;;;;10.78;53.74;101769.81;4976899;28;45509;-82
2022/01/31 08:05:42;;;;;;;;;3.33;2.00;;;;;11.00;54.27;101811.88;4977303;28;45441;-82
2022/01/31 08:08:07;;;;;;;;;5.67;3.00;;;;;10.86;53.91;101790.06;4977375;28;45544;-83
2022/01/31 08:10:36;;;;;;;;;5.00;3.67;;;;;11.05;54.06;101822.44;4959488;28;45449;-82
2022/01/31 08:13:03;;;;;;;;;6.00;5.00;;;;;11.13;53.59;101831.97;4977400;28;45756;-83
2022/01/31 08:15:30;;;;;;;;;20.33;15.00;;;;;10.62;53.49;101746.31;4977615;28;46140;-82
2022/01/31 08:17:55;;;;;;;;;23.33;17.67;;;;;11.00;53.83;101801.22;4976387;28;45638;-83
2022/01/31 08:20:21;;;;;;;;;23.00;20.67;;;;;11.04;54.04;101810.88;4977599;28;45559;-84
2022/01/31 08:22:46;;;;;;;;;14.00;13.00;;;;;11.23;53.50;101845.06;4975677;28;45599;-84
2022/01/31 08:25:14;;;;;;;;;20.00;17.00;;;;;10.72;53.54;101762.00;4977384;28;50557;-89
2022/01/31 08:27:42;;;;;;;;;17.00;15.33;;;;;11.19;53.72;101823.81;4977273;28;45511;-85
2022/01/31 08:30:12;;;;;;;;;3.67;3.67;;;;;10.96;53.65;101783.56;4977234;28;45512;-86
2022/01/31 08:32:44;;;;;;;;;12.33;11.67;;;;;11.11;53.36;101804.44;4977954;28;45412;-86
2022/01/31 08:37:55;;;;;;;;;7.67;5.67;;;;;11.06;53.85;101813.53;4976784;28;45409;-85
2022/01/31 08:40:20;;;;;;;;;3.67;3.00;;;;;10.89;53.29;101780.19;4977559;28;45834;-85
2022/01/31 08:42:46;;;;;;;;;5.00;2.00;;;;;11.23;53.75;101829.03;4977225;28;45432;-86
2022/01/31 08:45:12;;;;;;;;;2.67;2.67;;;;;11.28;53.98;101827.09;4976566;28;45415;-85
2022/01/31 08:47:41;;;;;;;;;2.00;2.00;;;;;10.92;54.28;101774.75;4959443;28;45332;-85
2022/01/31 08:50:09;;;;;;;;;5.00;2.00;;;;;11.06;53.55;101818.84;4976810;28;45564;-84
2022/01/31 08:52:35;;;;;;;;;3.00;3.00;;;;;11.30;53.71;101850.16;4977624;28;45424;-85
2022/01/31 08:55:01;;;;;;;;;4.00;2.33;;;;;11.24;53.61;101849.47;4976747;28;46139;-85
2022/01/31 08:57:27;;;;;;;;;5.33;3.00;;;;;11.09;53.68;101816.97;4959692;28;45396;-85
2022/01/31 08:59:52;;;;;;;;;7.00;4.67;;;;;11.38;53.57;101863.31;4977225;28;45430;-84
2022/01/31 09:02:25;;;;;;;;;5.33;3.00;;;;;11.43;53.16;101857.84;4977524;28;45532;-84
2022/01/31 09:04:52;;;;;;;;;1.33;1.33;;;;;10.90;53.31;101768.59;4976984;28;45435;-86
2022/01/31 09:07:20;;;;;;;;;3.33;2.33;;;;;11.24;53.22;101810.31;4959371;28;46193;-86
2022/01/31 09:09:53;;;;;;;;;2.00;2.00;;;;;11.46;52.56;101823.91;4980061;28;45219;-86
2022/01/31 09:12:25;;;;;;;;;3.33;3.33;;;;;11.56;52.50;101832.50;4963377;28;45537;-84
2022/01/31 09:14:51;;;;;;;;;6.33;4.00;;;;;11.43;52.13;101796.44;4961242;28;45533;-86
2022/01/31 09:17:16;;;;;;;;;3.33;1.67;;;;;11.12;52.25;101747.53;4960941;28;45399;-85
2022/01/31 09:19:41;;;;;;;;;4.00;3.00;;;;;11.44;52.42;101782.16;4961394;28;45332;-86
2022/01/31 09:22:07;;;;;;;;;6.00;3.00;;;;;11.17;52.32;101726.03;4975601;28;45398;-86
2022/01/31 09:24:37;;;;;;;;;3.67;3.67;;;;;11.45;52.04;101792.78;4980492;28;45343;-87
2022/01/31 09:27:06;;;;;;;;;1.33;1.33;;;;;11.58;51.40;101815.50;4980474;28;45449;-86
2022/01/31 09:29:32;;;;;;;;;7.00;2.00;;;;;11.25;51.77;101758.69;4979506;28;45441;-87
2022/01/31 09:31:59;;;;;;;;;3.67;2.67;;;;;11.43;51.38;101775.06;4979762;28;45228;-86
2022/01/31 09:34:25;;;;;;;;;4.00;3.00;;;;;10.96;50.78;101707.09;4985006;28;46687;-86
2022/01/31 09:36:50;;;;;;;;;1.00;1.00;;;;;11.20;51.19;101736.59;4999856;28;45590;-86
2022/01/31 09:39:16;;;;;;;;;1.00;1.00;;;;;11.16;51.40;101700.25;4982537;28;45548;-86
2022/01/31 09:41:45;;;;;;;;;4.00;2.33;;;;;11.92;50.66;101827.00;4982756;28;45461;-86
2022/01/31 09:44:23;;;;;;;;;1.67;0.67;;;;;11.78;50.45;101809.56;5000022;28;46658;-86
2022/01/31 09:49:18;;;;;;;;;4.00;2.00;;;;;11.47;50.28;101782.06;4999965;28;45531;-86
2022/01/31 09:51:44;;;;;;;;;3.33;2.00;;;;;11.34;49.73;101753.06;4985606;28;45593;-85
2022/01/31 09:54:12;;;;;;;;;5.00;2.00;;;;;11.72;50.27;101798.19;4978867;28;45605;-87
2022/01/31 09:56:41;;;;;;;;;2.00;1.00;;;;;11.95;50.03;101851.78;4958806;28;45620;-85
2022/01/31 09:59:09;;;;;;;;;2.00;2.00;;;;;11.90;49.83;101844.84;4976614;28;45482;-85
2022/01/31 10:01:43;;;;;;;;;3.67;2.67;;;;;11.97;50.23;101852.63;4962615;28;45427;-85
2022/01/31 10:04:17;;;;;;;;;4.33;4.00;;;;;11.89;49.88;101851.09;4961759;28;47342;-85
2022/01/31 10:06:54;;;;;;;;;4.33;4.33;;;;;11.22;49.36;101765.94;4979770;28;45452;-85
2022/01/31 10:09:21;;;;;;;;;3.67;3.67;;;;;11.93;49.20;101883.03;4979833;28;45320;-86
2022/01/31 10:11:51;;;;;;;;;3.00;3.00;;;;;11.96;50.03;101882.94;4980364;28;45361;-85
2022/01/31 10:17:35;;;;;;;;;4.67;3.00;;;;;11.26;49.25;101714.19;4979831;28;45371;-85
2022/01/31 10:20:10;;;;;;;;;2.33;2.00;;;;;12.25;48.77;101862.44;4979097;28;45379;-85
2022/01/31 10:22:44;;;;;;;;;0.67;0.67;;;;;12.30;48.21;101862.28;4962336;28;45418;-85
2022/01/31 10:25:12;;;;;;;;;0.33;0.33;;;;;11.72;48.38;101782.16;4962509;28;47291;-85
2022/01/31 10:27:46;;;;;;;;;2.33;1.33;;;;;12.16;50.20;101874.28;4979632;28;45255;-85
2022/01/31 10:30:13;;;;;;;;;2.33;2.33;;;;;12.22;50.56;101890.13;4960127;28;45530;-85
2022/01/31 10:32:41;;;;;;;;;1.67;0.67;;;;;12.15;51.52;101880.56;4975198;28;46335;-86
2022/01/31 10:35:13;;;;;;;;;4.00;4.00;;;;;11.07;53.40;101725.41;4977964;28;45831;-85
2022/01/31 10:37:42;;;;;;;;;5.67;4.33;;;;;12.01;52.51;101881.00;4978550;28;45323;-85
2022/01/31 10:45:55;;;;;;;;;4.33;3.00;;;;;12.04;50.39;101890.72;4978509;28;45534;-85
2022/01/31 10:53:49;;;;;;;;;8.67;8.67;;;;;12.19;50.64;101906.25;4978481;28;45343;-86
2022/01/31 10:56:15;;;;;;;;;8.33;8.00;;;;;11.78;50.30;101828.25;4977378;28;46323;-85
2022/01/31 10:58:58;;;;;;;;;11.67;8.33;;;;;11.86;51.42;101833.34;4977735;28;45246;-85
2022/01/31 11:01:24;;;;;;;;;31.33;26.67;;;;;12.08;50.07;101865.66;4970497;28;45492;-85
2022/01/31 11:03:51;;;;;;;;;29.00;28.00;;;;;12.31;49.30;101898.75;4978207;28;45406;-86
2022/01/31 11:06:17;;;;;;;;;10.33;10.00;;;;;12.28;49.00;101899.75;4960309;28;47230;-85
2022/01/31 11:08:42;;;;;;;;;12.33;11.00;;;;;11.29;48.31;101731.00;4977856;28;45445;-85
2022/01/31 11:11:07;;;;;;;;;10.00;9.00;;;;;12.16;48.10;101894.81;4978350;28;45374;-86
2022/01/31 11:13:36;;;;;;;;;5.33;2.67;;;;;12.00;47.31;101857.00;4978135;28;45433;-86
2022/01/31 11:16:04;;;;;;;;;2.67;0.67;;;;;11.88;47.84;101849.38;4978112;28;45734;-85
2022/01/31 11:18:31;;;;;;;;;1.00;1.00;;;;;12.30;47.31;101894.34;4976978;28;45521;-86
2022/01/31 11:21:03;;;;;;;;;4.00;3.00;;;;;11.52;47.50;101780.09;4977886;28;45364;-85
2022/01/31 11:23:29;;;;;;;;;4.00;3.00;;;;;11.72;48.23;101824.91;4977364;28;45572;-85
2022/01/31 11:26:01;;;;;;;;;2.00;2.00;;;;;12.24;49.23;101920.38;4978142;28;46710;-86
2022/01/31 11:28:31;;;;;;;;;4.67;2.00;;;;;12.13;50.50;101910.94;4960164;28;45863;-85
2022/01/31 11:30:57;;;;;;;;;3.00;0.67;;;;;11.84;49.71;101848.53;4972555;28;45969;-86
2022/01/31 11:33:23;;;;;;;;;0.67;0.67;;;;;11.78;50.01;101832.72;4959903;28;45426;-85
2022/01/31 11:35:49;;;;;;;;;2.00;2.00;;;;;11.42;49.82;101755.50;4959817;28;48318;-85
2022/01/31 11:38:16;;;;;;;;;1.00;1.00;;;;;12.16;48.86;101873.41;4960216;28;45474;-87
2022/01/31 11:40:42;;;;;;;;;1.67;1.67;;;;;12.15;48.64;101845.81;4959171;28;45425;-85
2022/01/31 11:43:08;;;;;;;;;1.33;1.33;;;;;12.28;48.74;101874.81;4978468;28;45335;-87
2022/01/31 11:45:39;;;;;;;;;6.00;4.00;;;;;12.55;48.87;101907.78;4979321;28;46574;-86
2022/01/31 11:48:09;;;;;;;;;4.33;2.33;;;;;12.55;48.32;101927.41;4978066;28;45497;-86